Avoree Noel — WDH9480 — position and weather

sailwx.info

Track history (hours):
 
Tides and Currents Weather Stations Pressure Air Temp Water Temp Dewpoint Dewpoint Depression Visibility Wind Speed Wind Dir Waves Ship Positions

Avoree Noel

Owner: LA CARRIERS, LLC, Cut Off, LA. More information available from US FCC via Universal Licensing System and Coast Guard Vessel Documentation Center.

Last reported at 2018-Apr-26 07:23 UTC. Time now 2018-Apr-26 11:00 UTC.
Position N 29°34' W 090°30'.

Length 24 m; draft 3 m.

Type: Towing. MMSI: 367668520.

Date/timePositionNaut miles runAvg speedWind from/ knotsBaromVisibWave heightAir tempDewpointWater temp
2018-Apr-26 07:23N 29°34' W 090°30'1 3.7
2018-Apr-26 06:59N 29°34' W 090°31'2 3.6
2018-Apr-26 06:30N 29°34' W 090°33'2 3.6
2018-Apr-26 06:00N 29°35' W 090°35'2 3.4
2018-Apr-26 05:30N 29°35' W 090°37'2 3.6
2018-Apr-26 05:00N 29°36' W 090°39'2 3.4
2018-Apr-26 04:30N 29°36' W 090°41'2 3.4
2018-Apr-26 04:00N 29°37' W 090°42'2 3.7
2018-Apr-26 03:30N 29°35' W 090°43'1 2.3
2018-Apr-26 03:00N 29°34' W 090°44'1 2.5
2018-Apr-26 02:30N 29°33' W 090°45'0 0.0
2018-Apr-26 02:00N 29°33' W 090°45'0 0.0
2018-Apr-26 01:30N 29°33' W 090°45'0 0.2
2018-Apr-26 01:00N 29°33' W 090°45'0 1.0
2018-Apr-26 00:30N 29°33' W 090°45'2 4.8
2018-Apr-26 00:00N 29°32' W 090°48'  
2018-Apr-20 09:54N 29°32' W 090°51'2 5.0
2018-Apr-20 09:30N 29°32' W 090°49'2 4.3
2018-Apr-20 09:00N 29°32' W 090°46'1 2.7
2018-Apr-20 08:30N 29°33' W 090°45'2 3.6
2018-Apr-20 08:01N 29°34' W 090°43'2 4.1
2018-Apr-20 07:30N 29°36' W 090°43'1 2.8
2018-Apr-20 07:01N 29°36' W 090°41'3 4.9
2018-Apr-20 06:30N 29°35' W 090°39'2 4.5
2018-Apr-20 06:00N 29°35' W 090°36'  
Track history (hours):
 
Tides and Currents Weather Stations Pressure Air Temp Water Temp Dewpoint Dewpoint Depression Visibility Wind Speed Wind Dir Waves Ship Positions

Avoree Noel

Owner: LA CARRIERS, LLC, Cut Off, LA. More information available from US FCC via Universal Licensing System and Coast Guard Vessel Documentation Center.

Last reported at 2018-Apr-26 07:23 UTC. Time now 2018-Apr-26 11:00 UTC.
Position N 29°34' W 090°30'.

Length 24 m; draft 3 m.

Type: Towing. MMSI: 367668520.

Date/timePositionNaut miles runAvg speedWind from/ knotsBaromVisibWave heightAir tempDewpointWater temp
2018-Apr-26 07:23N 29°34' W 090°30'1 3.7
2018-Apr-26 06:59N 29°34' W 090°31'2 3.6
2018-Apr-26 06:30N 29°34' W 090°33'2 3.6
2018-Apr-26 06:00N 29°35' W 090°35'2 3.4
2018-Apr-26 05:30N 29°35' W 090°37'2 3.6
2018-Apr-26 05:00N 29°36' W 090°39'2 3.4
2018-Apr-26 04:30N 29°36' W 090°41'2 3.4
2018-Apr-26 04:00N 29°37' W 090°42'2 3.7
2018-Apr-26 03:30N 29°35' W 090°43'1 2.3
2018-Apr-26 03:00N 29°34' W 090°44'1 2.5
2018-Apr-26 02:30N 29°33' W 090°45'0 0.0
2018-Apr-26 02:00N 29°33' W 090°45'0 0.0
2018-Apr-26 01:30N 29°33' W 090°45'0 0.2
2018-Apr-26 01:00N 29°33' W 090°45'0 1.0
2018-Apr-26 00:30N 29°33' W 090°45'2 4.8
2018-Apr-26 00:00N 29°32' W 090°48'  
2018-Apr-20 09:54N 29°32' W 090°51'2 5.0
2018-Apr-20 09:30N 29°32' W 090°49'2 4.3
2018-Apr-20 09:00N 29°32' W 090°46'1 2.7
2018-Apr-20 08:30N 29°33' W 090°45'2 3.6
2018-Apr-20 08:01N 29°34' W 090°43'2 4.1
2018-Apr-20 07:30N 29°36' W 090°43'1 2.8
2018-Apr-20 07:01N 29°36' W 090°41'3 4.9
2018-Apr-20 06:30N 29°35' W 090°39'2 4.5
2018-Apr-20 06:00N 29°35' W 090°36'  

Dump ship's entire track history